Shaw Air Force Base
KSSC : rendu visible

Aérodrome :











RETROUVEZ-NOUS SUR...

 
LOGIN :

S'inscrire | Disclaimer

   EN    FR    IT 

 









Légende :    VFR   VFR Marginal   IFR   IFR Intensif   IFR Très Intensif
Visi : 
Plafond : 
>= 8 km
>= 3000ft
5 à 8 km
1000 à 3000 ft
1500m à 5 km
500 à 1000 ft
800 à 1500m
200 à 500 ft
< 800m
< 200 ft
Symboles :   Orages  Brouillard  Fortes neiges  Fortes précipitations  Vent > 20 kt






- Altitude de l'aérodrome : 241 ft


KSSC - Shaw Air Force Base

DERNIER METAR :
  • 261756Z 06008KT 10SM SCT017 BKN100 OVC150 23/19 A3011 RMK AO2A SCT V BKN SLP196 60000 T02270186 10227 20198 57007 $

METARs EXPIRÉS :
  • 261743Z 06010KT 10SM SCT017 BKN100 OVC150 22/19 A3011 RMK AO2A SCT V BKN SLP196 $
  • 261656Z 04009KT 10SM FEW013 BKN100 OVC150 21/18 A3012 RMK AO2A SLP200 T02130181 $
  • 261556Z 04009KT 10SM SCT012 OVC130 21/18 A3012 RMK AO2A SLP200 P0000 T02100184 $

TAF TAF KSSC
Valide du 26 à 15h jusqu'au 27 à 21h UTC


261500Z 2615/2721 06009KT 9999 VCSH SCT013 OVC120 QNH3011INS
BECMG 2617/2618 06010G15KT 9999 -RA SCT020 BKN050 OVC100 QNH3005INS
BECMG 2622/2623 07009KT 9999 NSW SCT015 BKN050 OVC100 QNH3006INS
BECMG 2703/2704 05006KT 8000 -DZ BR BKN006 OVC015 QNH3008INS
BECMG 2710/2711 04010KT 4800 -RA BR BKN004 OVC008 QNH3003INS
BECMG 2714/2715 06012G20KT 6000 -RA BR FEW006 OVC008 QNH3001INS
BECMG 2717/2718 05015G25KT 9000 -SHRA VCTS BKN012CB OVC025 510003 QNH2994INS TX23/2620Z TN19/2710Z
FIR KZJX / Amérique du Nord



MET'MAP, la Météo Aéronautique d'un coup d'oeil ! - Copyright ORBIFLY Décembre 2007 - Disclaimer

ORBIFLY MET'MAP TEAM :

Programmation & Développement : Alexandra Zaïnal
Sur une idée originale de : Baudouin d'Aumeries
Assistance à la programmation : Marc-Olivier Méhu
Soutien technique & logistique : Manuel Goepfert

Contact : metmap@orbifly.com




SOURCES & CREDITS :

   NOAA       Earth
Advisory